Hoboksar, China
Current Conditions -  °F | °C
As of 9:00 PM on Friday 19 Dec 2014 (Local Time) from ZWWW Reporting Station
Haze Haze  
Wind Chill:   Ceiling: Unl
Heat Index:   Visibility: 1mi
Dew Point:   Wind: 2mph
Humidity: 85%   Direction: 40°NE
Pressure: 30.48"   Gusts: NA
Location:  46.78°N, 85.72°E
Report Text: ZWWW 191300Z 04001MPS 1600 BR NSC M16/M18 Q1032 NOSIG
Loading
Personal Weather Stations






























Interactive Weather Map New forecast layout! Learn more

10-Day Weather Forecast

Advertisements
Track Severe Weather on mobile